Outremont, Canada
Current Conditions -  °F | °C
As of 3:00 AM on Thursday 27 Nov 2014 (Local Time) from CYUL Reporting Station
Overcast Overcast  
Wind Chill: 21°   Ceiling: 3000
Heat Index: 30°   Visibility: 15mi
Dew Point: 19°   Wind: 12mph
Humidity: 64%   Direction: 20°NNE
Pressure: 30.01"   Gusts: 21mph
Location:  45.51°N, 73.61°W
Report Text: CYUL 270800Z 02010G18KT 15SM BKN030 OVC080 M01/M07 A3001 RMK SC7AS1 SLP165
Loading
Personal Weather Stations






























Interactive Weather Map New forecast layout! Learn more

10-Day Weather Forecast

Advertisements
Track Severe Weather on mobile